Steamboat, Nevada
Current Conditions -  °F | °C
As of 12:55 PM on Sunday 23 Nov 2014 (Local Time) from KRNO Reporting Station
Overcast Overcast  
Wind Chill: 42°   Ceiling: 22000
Heat Index: 44°   Visibility: 10mi
Dew Point: 26°   Wind: 5mph
Humidity: 49%   Direction: 110°ESE
Pressure: 30.32"   Gusts: NA
Location:  39.3905°N, 119.807°W
Report Text: KRNO 232055Z 11004KT 10SM FEW120 SCT150 OVC220 07/M03 A3032 RMK AO2 SLP265 T00671033 58023
Loading
Personal Weather Stations






























Interactive Weather Map New forecast layout! Learn more

10-Day Weather Forecast

Advertisements
Track Severe Weather on mobile